Time;durP1;ratioP1;P1;durP2;ratioP2;P2;SDS_P1;SDS_P2;PMS_P1;PMS_P2;Temp;Humidity;BMP_temperature;BMP_pressure;BME280_temperature;BME280_humidity;BME280_pressure;Samples;Min_cycle;Max_cycle;Signal;HPM_P1;HPM_P2
2023/05/27 00:01:02;;;;;;;23.55;5.50;;;11.40;83.90;;;;;;4936654;28;88400;-77
2023/05/27 00:03:28;;;;;;;22.10;4.60;;;11.30;84.20;;;;;;4937927;28;87764;-77
2023/05/27 00:05:53;;;;;;;17.70;4.18;;;11.30;84.10;;;;;;4938854;28;88511;-76
2023/05/27 00:08:19;;;;;;;24.55;5.80;;;11.30;84.30;;;;;;4937674;28;88272;-77
2023/05/27 00:10:45;;;;;;;19.88;4.95;;;11.30;84.80;;;;;;4938155;28;88417;-77
2023/05/27 00:13:11;;;;;;;30.95;5.75;;;11.20;84.60;;;;;;4936841;28;87727;-76
2023/05/27 00:15:40;;;;;;;16.08;4.22;;;11.20;85.00;;;;;;4936870;28;88096;-77
2023/05/27 00:18:06;;;;;;;22.80;5.03;;;11.20;84.10;;;;;;4936145;28;92852;-77
2023/05/27 00:20:32;;;;;;;19.65;4.65;;;11.20;85.00;;;;;;4937173;28;92139;-77
2023/05/27 00:22:59;;;;;;;24.95;5.15;;;11.10;85.20;;;;;;4937176;28;87755;-77
2023/05/27 00:25:26;;;;;;;21.08;4.72;;;11.10;85.40;;;;;;4936637;28;90299;-77
2023/05/27 00:27:51;;;;;;;20.33;5.57;;;11.10;85.50;;;;;;4936486;28;88479;-77
2023/05/27 00:30:17;;;;;;;18.17;4.90;;;11.00;85.60;;;;;;4935611;28;91223;-77
2023/05/27 00:32:43;;;;;;;21.55;5.20;;;11.00;85.10;;;;;;4936345;28;87926;-77
2023/05/27 00:35:09;;;;;;;24.42;4.47;;;11.00;86.10;;;;;;4937865;28;87819;-77
2023/05/27 00:37:35;;;;;;;21.67;5.45;;;10.90;85.90;;;;;;4937866;28;89000;-77
2023/05/27 00:40:01;;;;;;;23.60;5.47;;;10.90;86.10;;;;;;4937418;28;89038;-77
2023/05/27 00:42:26;;;;;;;20.95;4.45;;;10.90;86.00;;;;;;4934185;28;88837;-77
2023/05/27 00:44:52;;;;;;;19.95;5.60;;;10.80;86.40;;;;;;4938004;28;87710;-77
2023/05/27 00:47:19;;;;;;;22.85;4.72;;;10.80;86.30;;;;;;4935264;28;91475;-77
2023/05/27 00:49:45;;;;;;;17.25;5.15;;;10.80;86.90;;;;;;4936087;28;91399;-77
2023/05/27 00:52:12;;;;;;;27.50;6.38;;;10.80;86.70;;;;;;4936531;28;87672;-76
2023/05/27 00:54:39;;;;;;;32.00;5.57;;;10.70;87.10;;;;;;4937285;28;87610;-77
2023/05/27 00:57:05;;;;;;;22.40;5.60;;;10.70;87.10;;;;;;4937113;28;88702;-77
2023/05/27 00:59:31;;;;;;;24.13;5.20;;;10.60;87.20;;;;;;4937843;28;88748;-76
2023/05/27 01:01:57;;;;;;;18.90;5.20;;;10.60;87.40;;;;;;4936812;28;87812;-77
2023/05/27 01:04:24;;;;;;;26.35;5.20;;;10.60;87.40;;;;;;4936973;28;87426;-76
2023/05/27 01:07:02;;;;;;;18.50;4.80;;;10.50;87.60;;;;;;4936226;28;89593;-77
2023/05/27 01:09:49;;;;;;;20.98;5.28;;;10.50;88.00;;;;;;4936631;28;89187;-76
2023/05/27 01:12:21;;;;;;;13.02;5.35;;;10.50;88.00;;;;;;4936824;28;87342;-77
2023/05/27 01:14:49;;;;;;;28.70;5.82;;;10.40;88.40;;;;;;4937829;28;87717;-76
2023/05/27 01:17:17;;;;;;;18.80;4.93;;;10.40;88.60;;;;;;4936922;28;88466;-77
2023/05/27 01:19:45;;;;;;;24.77;6.75;;;10.30;87.90;;;;;;4936854;28;87654;-76
2023/05/27 01:22:15;;;;;;;23.33;5.55;;;10.40;88.90;;;;;;4935695;28;88018;-76
2023/05/27 01:24:41;;;;;;;19.85;5.18;;;10.30;89.60;;;;;;4935528;28;90233;-76
2023/05/27 01:27:08;;;;;;;30.90;5.85;;;10.30;88.10;;;;;;4937663;28;88796;-77
2023/05/27 01:29:35;;;;;;;20.00;4.95;;;10.20;89.30;;;;;;4937367;28;88253;-77
2023/05/27 01:32:08;;;;;;;23.98;6.15;;;10.20;89.00;;;;;;4936203;28;88456;-77
2023/05/27 01:34:50;;;;;;;24.15;5.78;;;10.20;89.40;;;;;;4936318;28;87574;-77
2023/05/27 01:37:20;;;;;;;18.55;4.95;;;10.10;89.80;;;;;;4935975;28;87493;-77
2023/05/27 01:39:48;;;;;;;17.85;5.20;;;10.10;88.90;;;;;;4936196;28;88132;-77
2023/05/27 01:42:15;;;;;;;21.73;5.55;;;10.10;89.60;;;;;;4936850;28;87681;-77
2023/05/27 01:44:41;;;;;;;16.45;4.90;;;10.10;89.60;;;;;;4936822;28;87766;-77
2023/05/27 01:47:07;;;;;;;29.23;6.70;;;10.00;89.80;;;;;;4926376;28;90659;-76
2023/05/27 01:49:33;;;;;;;21.88;5.57;;;10.00;89.80;;;;;;4936273;28;88221;-76
2023/05/27 01:51:58;;;;;;;24.73;5.50;;;10.00;90.30;;;;;;4936821;28;87708;-77
2023/05/27 01:54:24;;;;;;;19.08;6.03;;;9.90;90.20;;;;;;4935890;28;87798;-77
2023/05/27 01:56:50;;;;;;;21.58;6.13;;;9.90;90.30;;;;;;4935370;28;93029;-77
2023/05/27 01:59:15;;;;;;;24.08;6.03;;;9.90;90.40;;;;;;4936752;28;89038;-77
2023/05/27 02:01:42;;;;;;;21.17;5.75;;;9.90;90.40;;;;;;4936546;28;87434;-77
2023/05/27 02:04:07;;;;;;;29.60;6.00;;;9.90;90.50;;;;;;4934580;28;90283;-77
2023/05/27 02:06:33;;;;;;;24.50;6.25;;;9.90;90.80;;;;;;4934416;28;89920;-77
2023/05/27 02:08:59;;;;;;;30.83;6.25;;;9.80;90.60;;;;;;4937358;28;87993;-76
2023/05/27 02:11:25;;;;;;;19.10;5.65;;;9.80;90.90;;;;;;4936654;28;87725;-77
2023/05/27 02:13:52;;;;;;;20.02;5.45;;;9.70;90.60;;;;;;4936586;28;88438;-76
2023/05/27 02:16:20;;;;;;;22.08;7.03;;;9.70;90.70;;;;;;4935967;28;88306;-77
2023/05/27 02:18:48;;;;;;;24.85;5.68;;;9.70;91.00;;;;;;4933758;28;90066;-77
2023/05/27 02:21:14;;;;;;;19.30;5.63;;;9.70;90.80;;;;;;4935968;28;88140;-76
2023/05/27 02:23:40;;;;;;;26.80;7.05;;;9.70;90.70;;;;;;4936950;28;87881;-77
2023/05/27 02:26:06;;;;;;;23.75;6.00;;;9.60;90.70;;;;;;4935380;28;87571;-77
2023/05/27 02:28:31;;;;;;;23.45;6.55;;;9.60;90.80;;;;;;4936122;28;87445;-77
2023/05/27 02:30:58;;;;;;;22.77;5.47;;;9.60;91.00;;;;;;4935843;28;88024;-77
2023/05/27 02:33:24;;;;;;;23.63;6.47;;;9.50;91.10;;;;;;4936541;28;88217;-77
2023/05/27 02:35:49;;;;;;;25.00;6.22;;;9.50;91.00;;;;;;4936315;28;87852;-76
2023/05/27 02:38:15;;;;;;;27.60;7.07;;;9.50;91.20;;;;;;4936363;28;88564;-77
2023/05/27 02:40:40;;;;;;;22.58;6.50;;;9.40;91.20;;;;;;4935589;28;87729;-77
2023/05/27 02:43:08;;;;;;;25.10;6.68;;;9.40;91.10;;;;;;4934287;28;90377;-76
2023/05/27 02:45:33;;;;;;;29.60;7.13;;;9.40;91.40;;;;;;4934324;28;89455;-77
2023/05/27 02:48:01;;;;;;;27.08;6.38;;;9.40;91.60;;;;;;4936514;28;89661;-77
2023/05/27 02:50:27;;;;;;;26.95;6.03;;;9.30;91.50;;;;;;4935465;28;87670;-77
2023/05/27 02:52:52;;;;;;;28.27;6.68;;;9.30;91.70;;;;;;4935619;28;88001;-77
2023/05/27 02:55:18;;;;;;;20.42;6.60;;;9.40;91.70;;;;;;4935116;28;87811;-77
2023/05/27 02:57:44;;;;;;;23.15;6.43;;;9.30;91.90;;;;;;4937366;28;87703;-77
2023/05/27 03:00:11;;;;;;;21.30;6.70;;;9.30;91.90;;;;;;4939590;28;87081;-76
2023/05/27 03:02:37;;;;;;;29.88;8.02;;;9.30;91.90;;;;;;4938949;28;87383;-77
2023/05/27 03:05:04;;;;;;;24.98;6.63;;;9.30;91.90;;;;;;4937680;28;88223;-77
2023/05/27 03:07:30;;;;;;;18.85;6.43;;;9.30;92.10;;;;;;4938499;28;88335;-76
2023/05/27 03:09:56;;;;;;;31.92;7.35;;;9.30;91.80;;;;;;4938918;28;88552;-76
2023/05/27 03:12:22;;;;;;;24.23;6.50;;;9.30;92.00;;;;;;4938214;28;87780;-76
2023/05/27 03:14:48;;;;;;;26.95;6.82;;;9.30;92.20;;;;;;4939281;28;88367;-77
2023/05/27 03:17:14;;;;;;;35.10;7.00;;;9.30;92.00;;;;;;4937410;28;95543;-77
2023/05/27 03:19:40;;;;;;;23.02;6.88;;;9.30;92.00;;;;;;4939202;28;88039;-77
2023/05/27 03:22:06;;;;;;;25.40;7.55;;;9.30;92.20;;;;;;4939025;28;87693;-77
2023/05/27 03:24:33;;;;;;;29.52;6.80;;;9.20;92.00;;;;;;4936403;28;90407;-76
2023/05/27 03:26:59;;;;;;;30.83;7.13;;;9.20;92.20;;;;;;4939759;28;87302;-77
2023/05/27 03:29:25;;;;;;;25.25;6.88;;;9.20;92.50;;;;;;4938553;28;88151;-77
2023/05/27 03:31:50;;;;;;;23.10;6.95;;;9.20;92.30;;;;;;4937350;28;87843;-77
2023/05/27 03:34:16;;;;;;;24.55;6.22;;;9.10;92.20;;;;;;4937506;28;88949;-77
2023/05/27 03:36:46;;;;;;;25.63;7.03;;;9.20;92.00;;;;;;4938247;28;89372;-77
2023/05/27 03:39:15;;;;;;;25.30;6.82;;;9.20;92.00;;;;;;4938171;28;87845;-77
2023/05/27 03:41:41;;;;;;;26.98;6.35;;;9.10;91.60;;;;;;4939106;28;87807;-77
2023/05/27 03:44:06;;;;;;;26.88;7.18;;;9.20;91.70;;;;;;4936051;28;88312;-77
2023/05/27 03:46:33;;;;;;;31.42;7.28;;;9.10;91.90;;;;;;4937810;28;87756;-76
2023/05/27 03:48:59;;;;;;;19.23;6.18;;;9.10;92.00;;;;;;4938105;28;87383;-76
2023/05/27 03:51:24;;;;;;;19.83;6.25;;;9.10;92.00;;;;;;4937513;28;87674;-77
2023/05/27 03:53:50;;;;;;;19.58;6.13;;;9.10;92.00;;;;;;4938342;28;88660;-77
2023/05/27 03:56:16;;;;;;;32.13;7.90;;;9.00;91.50;;;;;;4937898;28;87443;-77
2023/05/27 03:58:42;;;;;;;29.15;7.22;;;9.00;92.20;;;;;;4936543;28;88467;-77
2023/05/27 04:01:08;;;;;;;35.60;7.93;;;9.00;92.10;;;;;;4938044;28;87403;-76
2023/05/27 04:03:33;;;;;;;25.40;6.72;;;9.00;92.50;;;;;;4935838;28;91571;-76
2023/05/27 04:05:59;;;;;;;31.15;7.50;;;8.90;92.10;;;;;;4938688;28;87879;-77
2023/05/27 04:08:28;;;;;;;28.02;6.97;;;9.00;92.50;;;;;;4938315;28;87881;-77
2023/05/27 04:10:56;;;;;;;21.90;7.00;;;8.90;92.20;;;;;;4936021;28;89003;-77
2023/05/27 04:13:22;;;;;;;21.60;7.65;;;8.90;92.70;;;;;;4937799;28;89253;-77
2023/05/27 04:15:48;;;;;;;24.15;6.30;;;8.90;92.60;;;;;;4938375;28;86865;-77
2023/05/27 04:18:14;;;;;;;28.20;6.72;;;9.00;92.10;;;;;;4936910;28;87840;-76
2023/05/27 04:20:42;;;;;;;31.73;7.78;;;9.00;92.20;;;;;;4936236;28;90282;-77
2023/05/27 04:23:09;;;;;;;21.92;6.63;;;9.00;92.50;;;;;;4936089;28;90346;-77
2023/05/27 04:25:35;;;;;;;23.35;7.20;;;9.00;92.20;;;;;;4938012;28;89052;-76
2023/05/27 04:28:04;;;;;;;31.27;7.47;;;9.00;92.40;;;;;;4937280;28;87617;-76
2023/05/27 04:30:30;;;;;;;20.65;7.00;;;9.00;92.60;;;;;;4936889;28;87740;-77
2023/05/27 04:32:56;;;;;;;29.23;7.90;;;9.10;92.70;;;;;;4938508;28;88897;-76
2023/05/27 04:35:21;;;;;;;27.58;7.05;;;9.10;92.80;;;;;;4937226;28;88061;-76
2023/05/27 04:37:47;;;;;;;25.13;7.38;;;9.10;92.80;;;;;;4937716;28;87464;-77
2023/05/27 04:40:13;;;;;;;24.67;7.72;;;9.10;92.30;;;;;;4937818;28;88011;-76
2023/05/27 04:42:39;;;;;;;26.70;7.70;;;9.20;92.70;;;;;;4936775;28;89645;-77
2023/05/27 04:45:06;;;;;;;23.65;8.98;;;9.20;92.60;;;;;;4937393;28;88088;-76
2023/05/27 04:47:32;;;;;;;27.27;7.95;;;9.20;92.50;;;;;;4936240;28;88510;-76
2023/05/27 04:50:00;;;;;;;30.38;7.75;;;9.30;92.70;;;;;;4936636;28;87939;-76
2023/05/27 04:52:29;;;;;;;28.35;9.02;;;9.30;92.40;;;;;;4936903;28;88428;-76
2023/05/27 04:54:55;;;;;;;23.63;7.55;;;9.30;92.40;;;;;;4936706;28;88505;-76
2023/05/27 04:57:23;;;;;;;23.38;7.22;;;9.40;92.20;;;;;;4936953;28;87690;-76
2023/05/27 04:59:59;;;;;;;30.10;8.00;;;9.50;92.20;;;;;;4937094;28;87720;-76
2023/05/27 05:02:34;;;;;;;33.75;8.95;;;9.50;92.30;;;;;;4937047;28;88725;-76
2023/05/27 05:05:06;;;;;;;26.83;8.27;;;9.60;92.30;;;;;;4937586;28;86922;-77
2023/05/27 05:07:32;;;;;;;34.45;8.88;;;9.60;92.20;;;;;;4936958;28;87423;-77
2023/05/27 05:09:58;;;;;;;29.38;8.93;;;9.60;92.10;;;;;;4937219;28;87621;-76
2023/05/27 05:12:25;;;;;;;25.58;8.75;;;9.70;92.10;;;;;;4935027;28;89270;-77
2023/05/27 05:14:51;;;;;;;35.45;8.90;;;9.70;91.90;;;;;;4936527;28;88743;-76
2023/05/27 05:17:16;;;;;;;27.13;8.00;;;9.80;91.90;;;;;;4937063;28;87434;-76
2023/05/27 05:19:43;;;;;;;32.30;8.95;;;9.80;91.80;;;;;;4933866;28;90842;-77
2023/05/27 05:22:08;;;;;;;28.05;8.70;;;9.90;91.80;;;;;;4936286;28;89043;-77
2023/05/27 05:24:34;;;;;;;28.15;8.27;;;10.00;91.80;;;;;;4935957;28;87658;-76
2023/05/27 05:27:00;;;;;;;28.50;8.02;;;10.00;91.80;;;;;;4937811;28;87659;-77
2023/05/27 05:29:25;;;;;;;24.88;8.70;;;10.10;91.60;;;;;;4936202;28;88020;-76
2023/05/27 05:31:51;;;;;;;31.85;8.45;;;10.20;91.40;;;;;;4936957;28;88433;-76
2023/05/27 05:34:17;;;;;;;29.75;8.95;;;10.20;91.10;;;;;;4935842;28;88270;-76
2023/05/27 05:36:42;;;;;;;28.45;8.90;;;10.30;91.30;;;;;;4935952;28;89022;-76
2023/05/27 05:39:08;;;;;;;33.53;8.18;;;10.40;91.00;;;;;;4936335;28;87913;-76
2023/05/27 05:41:33;;;;;;;23.40;8.35;;;10.50;90.90;;;;;;4936656;28;88701;-76
2023/05/27 07:35:09;;;;;;;20.60;6.53;;;16.10;73.40;;;;;;4856695;28;87519;-88
2023/05/27 07:37:34;;;;;;;27.25;7.13;;;16.40;73.80;;;;;;4877877;28;88712;-88
2023/05/27 07:40:00;;;;;;;25.05;7.05;;;16.50;72.00;;;;;;4877513;28;87745;-89
2023/05/27 07:42:26;;;;;;;22.70;7.60;;;16.60;70.90;;;;;;4851725;28;88339;-89
2023/05/27 07:44:51;;;;;;;26.63;6.25;;;16.80;70.90;;;;;;4850423;29;88138;-89
2023/05/27 07:47:17;;;;;;;20.55;6.35;;;16.90;72.50;;;;;;4874468;28;88589;-87
2023/05/27 07:49:42;;;;;;;23.73;7.10;;;17.00;69.20;;;;;;4852224;28;87706;-87
2023/05/27 07:52:08;;;;;;;19.90;6.47;;;17.00;67.50;;;;;;4853118;28;89337;-85
2023/05/27 07:54:34;;;;;;;21.55;7.15;;;17.10;69.30;;;;;;4850081;28;92757;-86
2023/05/27 07:56:59;;;;;;;21.48;6.68;;;17.20;67.90;;;;;;4860599;29;90914;-87
2023/05/27 07:59:25;;;;;;;20.92;7.15;;;17.40;69.30;;;;;;4853763;29;87641;-87
2023/05/27 08:01:50;;;;;;;22.13;7.60;;;17.50;68.60;;;;;;4855522;28;87878;-89
2023/05/27 08:04:16;;;;;;;21.58;7.15;;;17.60;66.60;;;;;;4851637;29;88516;-86
2023/05/27 08:06:42;;;;;;;25.75;7.90;;;17.70;66.50;;;;;;4850282;28;89945;-86
2023/05/27 08:09:08;;;;;;;22.02;6.85;;;17.90;66.40;;;;;;4850895;28;87583;-88
2023/05/27 08:11:33;;;;;;;18.67;5.47;;;18.10;65.90;;;;;;4851855;29;89898;-84
2023/05/27 08:13:59;;;;;;;15.07;4.95;;;18.30;65.30;;;;;;4852334;28;90476;-88
2023/05/27 08:16:25;;;;;;;20.08;6.40;;;18.50;64.90;;;;;;4854169;28;87959;-85
2023/05/27 08:18:50;;;;;;;14.40;4.85;;;18.80;64.50;;;;;;4852187;29;88811;-89
2023/05/27 08:21:16;;;;;;;17.85;5.75;;;19.10;64.00;;;;;;4852965;28;90382;-91
2023/05/27 08:23:42;;;;;;;15.18;5.47;;;19.30;63.20;;;;;;4852543;28;91836;-91
2023/05/27 08:26:08;;;;;;;23.83;5.82;;;19.60;63.30;;;;;;4854232;28;91215;-90
2023/05/27 08:28:36;;;;;;;25.20;5.82;;;19.80;62.10;;;;;;4858499;28;87808;-90
2023/05/27 08:31:03;;;;;;;18.20;6.55;;;19.90;61.00;;;;;;4852687;28;87932;-90
2023/05/27 08:33:29;;;;;;;23.75;6.43;;;20.00;60.70;;;;;;4874411;28;91885;-91
2023/05/27 08:35:56;;;;;;;20.52;6.00;;;20.00;60.50;;;;;;4852545;29;90439;-90
2023/05/27 08:38:22;;;;;;;17.10;4.57;;;20.30;60.90;;;;;;4859836;29;87934;-89
2023/05/27 08:40:48;;;;;;;18.55;5.40;;;20.60;59.60;;;;;;4850121;29;87991;-87
2023/05/27 08:43:15;;;;;;;16.73;5.30;;;20.80;59.00;;;;;;4849026;29;92537;-88
2023/05/27 08:45:40;;;;;;;21.75;6.63;;;21.00;59.10;;;;;;4853716;28;88468;-87
2023/05/27 08:48:10;;;;;;;16.75;5.10;;;21.20;57.10;;;;;;4851317;29;87572;-83
2023/05/27 08:50:36;;;;;;;16.35;5.07;;;21.20;57.80;;;;;;4851882;29;88162;-86
2023/05/27 08:53:03;;;;;;;22.90;5.25;;;21.10;57.70;;;;;;4857546;29;90918;-85
2023/05/27 08:55:31;;;;;;;23.27;5.93;;;21.20;57.40;;;;;;4851085;29;91722;-87
2023/05/27 08:58:01;;;;;;;15.75;5.90;;;21.40;57.90;;;;;;4851577;29;87714;-86
2023/05/27 09:00:27;;;;;;;19.23;5.47;;;21.70;58.40;;;;;;4859570;28;90187;-87
2023/05/27 09:02:56;;;;;;;22.88;6.28;;;21.90;55.60;;;;;;4850096;29;90264;-86
2023/05/27 09:05:22;;;;;;;17.75;5.95;;;22.10;57.00;;;;;;4850914;29;90609;-86
2023/05/27 09:07:48;;;;;;;26.50;6.93;;;22.30;56.40;;;;;;4850010;29;88689;-86
2023/05/27 09:10:13;;;;;;;151.10;17.60;;;22.50;54.50;;;;;;4851172;29;90347;-85
2023/05/27 09:12:44;;;;;;;27.77;6.95;;;22.50;55.40;;;;;;4849815;28;89745;-85
2023/05/27 09:15:11;;;;;;;19.20;5.65;;;22.60;55.50;;;;;;4849944;29;91115;-86
2023/05/27 09:17:44;;;;;;;22.70;6.68;;;23.00;54.90;;;;;;4852747;29;87713;-85
2023/05/27 09:20:12;;;;;;;;;;;23.40;54.20;;;;;;4858417;29;89573;-87
2023/05/27 09:22:38;;;;;;;17.77;5.38;;;23.50;52.70;;;;;;4850257;29;91528;-87
2023/05/27 09:25:04;;;;;;;15.73;4.90;;;23.60;53.80;;;;;;4848719;29;90382;-87
2023/05/27 09:27:32;;;;;;;21.33;5.57;;;23.70;53.80;;;;;;4851178;29;87782;-86
2023/05/27 09:30:06;;;;;;;14.77;4.95;;;23.90;52.80;;;;;;4852697;29;88070;-87
2023/05/27 09:32:32;;;;;;;16.85;4.95;;;24.00;52.50;;;;;;4851452;29;96814;-87
2023/05/27 09:34:58;;;;;;;17.83;4.70;;;24.40;51.30;;;;;;4850816;29;92166;-90
2023/05/27 09:37:34;;;;;;;12.85;4.60;;;24.60;51.70;;;;;;4851061;29;87842;-89
2023/05/27 09:40:09;;;;;;;15.20;4.97;;;25.00;51.70;;;;;;4857538;29;90256;-90
2023/05/27 09:42:43;;;;;;;18.75;5.05;;;25.00;50.30;;;;;;4851472;29;91256;-89
2023/05/27 09:45:15;;;;;;;18.15;5.97;;;25.20;50.30;;;;;;4858672;28;90975;-88
2023/05/27 09:47:52;;;;;;;16.77;4.68;;;25.20;48.40;;;;;;4858695;29;87257;-87
2023/05/27 09:50:19;;;;;;;12.50;3.83;;;25.30;49.90;;;;;;4850590;29;89418;-86
2023/05/27 09:52:47;;;;;;;14.27;4.30;;;25.70;51.10;;;;;;4849728;29;90557;-84
2023/05/27 09:55:14;;;;;;;16.67;4.90;;;26.10;49.80;;;;;;4851485;29;91351;-88
2023/05/27 09:57:40;;;;;;;13.23;3.67;;;26.30;48.70;;;;;;4849512;29;91874;-87
2023/05/27 10:00:17;;;;;;;13.98;4.45;;;26.60;49.20;;;;;;4851105;28;89320;-87
2023/05/27 10:02:48;;;;;;;14.65;4.63;;;26.80;48.10;;;;;;4850358;29;90919;-86
2023/05/27 10:05:15;;;;;;;13.63;4.25;;;26.80;45.90;;;;;;4861210;28;90866;-87
2023/05/27 10:07:45;;;;;;;13.23;3.88;;;26.70;46.80;;;;;;4857621;28;87541;-87
2023/05/27 10:10:14;;;;;;;13.80;4.38;;;26.70;46.50;;;;;;4858807;28;90335;-86
2023/05/27 10:12:41;;;;;;;13.57;3.70;;;26.60;46.40;;;;;;4864734;29;91388;-85
2023/05/27 10:15:07;;;;;;;14.05;4.20;;;26.50;45.70;;;;;;4864319;28;90998;-85
2023/05/27 10:17:47;;;;;;;14.70;4.40;;;26.40;46.50;;;;;;4856428;29;87786;-84
2023/05/27 10:20:24;;;;;;;12.13;3.97;;;26.60;46.40;;;;;;4879085;28;90174;-86
2023/05/27 10:22:50;;;;;;;12.82;3.97;;;27.00;46.30;;;;;;4856422;28;89023;-88
2023/05/27 10:25:16;;;;;;;12.05;3.40;;;27.10;45.70;;;;;;4863892;28;92326;-80
2023/05/27 10:27:48;;;;;;;14.90;4.10;;;27.30;45.60;;;;;;4856432;28;87962;-81
2023/05/27 10:30:15;;;;;;;14.90;3.97;;;27.40;42.90;;;;;;4859419;28;87594;-81
2023/05/27 10:32:50;;;;;;;16.17;3.83;;;27.30;44.10;;;;;;4856629;29;88978;-81
2023/05/27 10:35:18;;;;;;;12.98;3.70;;;27.20;45.40;;;;;;4858189;28;88314;-82
2023/05/27 10:37:47;;;;;;;20.30;3.85;;;27.30;44.60;;;;;;4863003;28;88045;-81
2023/05/27 10:40:23;;;;;;;14.73;3.30;;;27.50;43.50;;;;;;4863688;29;91003;-81
2023/05/27 10:43:02;;;;;;;12.85;3.75;;;27.50;43.00;;;;;;4861739;28;91699;-85
2023/05/27 10:45:34;;;;;;;10.57;3.40;;;27.70;44.50;;;;;;4878665;28;90027;-82
2023/05/27 10:48:01;;;;;;;26.95;5.03;;;27.90;43.00;;;;;;4863385;29;88750;-82
2023/05/27 10:50:34;;;;;;;9.63;3.80;;;27.80;41.40;;;;;;4857687;28;89510;-82
2023/05/27 10:53:01;;;;;;;14.52;3.45;;;27.70;43.90;;;;;;4862936;29;91547;-80
2023/05/27 10:55:27;;;;;;;16.67;3.58;;;28.00;43.40;;;;;;4861729;28;90396;-80
2023/05/27 10:57:53;;;;;;;12.35;3.53;;;28.30;41.50;;;;;;4856588;28;87289;-80
2023/05/27 11:00:20;;;;;;;10.48;3.40;;;28.60;41.10;;;;;;4855498;28;87805;-80
2023/05/27 11:02:47;;;;;;;9.48;3.20;;;28.80;41.10;;;;;;4855820;29;88394;-80
2023/05/27 11:05:15;;;;;;;12.85;3.55;;;28.90;41.20;;;;;;4855502;28;87951;-80
2023/05/27 11:07:41;;;;;;;16.40;4.18;;;29.10;42.30;;;;;;4855230;28;87861;-80
2023/05/27 11:10:08;;;;;;;12.18;3.13;;;29.30;40.70;;;;;;4856983;28;88027;-80
2023/05/27 11:12:34;;;;;;;12.88;4.25;;;29.20;42.80;;;;;;4853681;29;90216;-80
2023/05/27 11:15:01;;;;;;;9.85;3.33;;;29.30;41.30;;;;;;4858863;29;87925;-81
2023/05/27 11:17:27;;;;;;;11.18;3.30;;;29.50;40.50;;;;;;4853800;28;87508;-80
2023/05/27 11:19:53;;;;;;;10.63;3.97;;;29.60;40.70;;;;;;4852571;28;87749;-78
2023/05/27 11:22:19;;;;;;;14.93;3.83;;;29.70;40.30;;;;;;4852081;28;88105;-77
2023/05/27 11:25:02;;;;;;;13.55;3.80;;;29.70;41.00;;;;;;4852789;28;87869;-79
2023/05/27 11:27:37;;;;;;;13.20;4.27;;;29.90;39.50;;;;;;4852642;28;87504;-78
2023/05/27 11:30:09;;;;;;;13.25;3.90;;;30.00;40.20;;;;;;4853959;29;87317;-77
2023/05/27 11:32:35;;;;;;;11.55;3.70;;;30.10;40.20;;;;;;4851134;29;96235;-77
2023/05/27 11:35:01;;;;;;;10.43;3.40;;;30.00;40.50;;;;;;4851385;29;89192;-75
2023/05/27 11:37:32;;;;;;;13.07;4.03;;;30.10;40.20;;;;;;4852755;28;88767;-78
2023/05/27 11:39:57;;;;;;;16.88;4.20;;;29.90;40.30;;;;;;4852293;28;87604;-87
2023/05/27 11:42:24;;;;;;;19.00;4.43;;;30.00;40.50;;;;;;4853435;29;89972;-87
2023/05/27 11:44:51;;;;;;;16.33;4.32;;;30.30;41.10;;;;;;4854370;29;88255;-86
2023/05/27 11:47:17;;;;;;;15.10;4.45;;;30.40;40.30;;;;;;4860360;29;87913;-86
2023/05/27 11:49:43;;;;;;;16.60;4.32;;;30.60;39.80;;;;;;4854611;28;87456;-87
2023/05/27 11:52:11;;;;;;;11.93;3.53;;;30.60;40.50;;;;;;4851288;29;91467;-87
2023/05/27 11:54:38;;;;;;;13.23;4.07;;;30.60;39.50;;;;;;4854363;29;90469;-85
2023/05/27 11:57:06;;;;;;;12.75;3.38;;;30.60;38.70;;;;;;4855095;29;87555;-86
2023/05/27 11:59:34;;;;;;;11.32;3.47;;;30.70;37.70;;;;;;4854250;29;91809;-86
2023/05/27 12:02:00;;;;;;;11.60;3.45;;;30.80;37.80;;;;;;4853253;28;91652;-86
2023/05/27 12:04:26;;;;;;;12.32;3.78;;;30.70;38.70;;;;;;4854587;28;88513;-86
2023/05/27 12:06:51;;;;;;;10.77;3.10;;;31.00;39.90;;;;;;4852337;28;87741;-88
2023/05/27 12:09:17;;;;;;;12.98;4.07;;;31.10;38.40;;;;;;4853150;28;87952;-87
2023/05/27 12:11:43;;;;;;;16.05;4.13;;;31.10;37.60;;;;;;4853216;29;90134;-84
2023/05/27 12:14:09;;;;;;;10.93;3.45;;;31.10;38.40;;;;;;4841537;29;89341;-84
2023/05/27 12:16:34;;;;;;;10.70;2.80;;;31.20;38.70;;;;;;4850588;29;87816;-84
2023/05/27 12:19:00;;;;;;;9.80;3.40;;;31.20;38.80;;;;;;4853490;28;89001;-84
2023/05/27 12:21:26;;;;;;;12.80;3.38;;;31.40;37.80;;;;;;4852680;28;88706;-84
2023/05/27 12:23:51;;;;;;;9.93;2.85;;;31.70;38.90;;;;;;4853412;29;88018;-85
2023/05/27 12:26:18;;;;;;;7.45;2.60;;;32.00;37.90;;;;;;4848806;29;88660;-85
2023/05/27 12:28:43;;;;;;;9.05;3.10;;;31.80;38.00;;;;;;4852495;28;90090;-86
2023/05/27 12:31:09;;;;;;;10.70;3.70;;;31.90;37.60;;;;;;4851604;29;91409;-87
2023/05/27 12:33:35;;;;;;;12.75;3.25;;;32.00;37.30;;;;;;4859373;28;88575;-87
2023/05/27 12:36:02;;;;;;;11.10;2.95;;;32.30;36.80;;;;;;4876719;28;87755;-90
2023/05/27 12:38:27;;;;;;;12.75;3.13;;;32.50;36.70;;;;;;4852023;28;87929;-80
2023/05/27 12:40:55;;;;;;;9.45;2.88;;;32.50;37.30;;;;;;4851459;28;87922;-81
2023/05/27 12:43:21;;;;;;;12.93;3.60;;;32.70;35.60;;;;;;4850940;29;88503;-81
2023/05/27 12:45:47;;;;;;;12.82;3.63;;;32.60;36.20;;;;;;4852339;29;87621;-81
2023/05/27 12:48:13;;;;;;;13.68;3.78;;;32.60;37.10;;;;;;4873764;28;90872;-82
2023/05/27 12:50:39;;;;;;;10.80;3.40;;;32.50;36.90;;;;;;4858683;29;92359;-82
2023/05/27 12:53:04;;;;;;;8.30;3.13;;;32.80;37.20;;;;;;4850989;29;92133;-82
2023/05/27 12:55:30;;;;;;;9.20;3.17;;;33.00;36.20;;;;;;4851827;28;87859;-81
2023/05/27 12:57:56;;;;;;;10.65;3.55;;;33.20;36.80;;;;;;4851320;28;87550;-83
2023/05/27 13:00:22;;;;;;;16.88;3.38;;;33.20;35.20;;;;;;4848676;29;91726;-83
2023/05/27 13:02:48;;;;;;;13.57;2.95;;;33.20;34.70;;;;;;4853556;29;88349;-83
2023/05/27 13:05:15;;;;;;;9.98;3.10;;;33.10;35.90;;;;;;4847460;29;89129;-82
2023/05/27 13:07:53;;;;;;;8.18;2.70;;;33.00;34.40;;;;;;4858265;29;90486;-82
2023/05/27 13:10:21;;;;;;;7.53;3.03;;;33.10;36.50;;;;;;4856596;29;92105;-84
2023/05/27 13:12:47;;;;;;;8.65;3.38;;;33.70;35.10;;;;;;4872914;28;90991;-83
2023/05/27 13:15:13;;;;;;;10.82;2.78;;;33.90;34.80;;;;;;4850209;29;88593;-83
2023/05/27 13:17:39;;;;;;;8.77;2.88;;;34.20;35.80;;;;;;4851838;29;90751;-84
2023/05/27 13:20:05;;;;;;;14.40;3.85;;;34.50;34.60;;;;;;4852982;28;90381;-84
2023/05/27 13:22:31;;;;;;;9.75;3.22;;;34.50;33.10;;;;;;4850617;29;90262;-84
2023/05/27 13:24:57;;;;;;;11.05;3.10;;;34.60;33.90;;;;;;4850847;29;87623;-84
2023/05/27 13:27:23;;;;;;;10.48;3.30;;;34.40;33.60;;;;;;4850348;28;89579;-82
2023/05/27 13:29:48;;;;;;;11.02;3.20;;;34.50;35.00;;;;;;4852471;29;88913;-82
2023/05/27 13:32:14;;;;;;;8.27;2.72;;;34.70;34.90;;;;;;4850851;28;91323;-86
2023/05/27 13:34:40;;;;;;;7.68;2.97;;;35.00;33.40;;;;;;4851938;29;87960;-87
2023/05/27 13:37:06;;;;;;;9.23;3.13;;;35.10;32.70;;;;;;4842306;29;90277;-85
2023/05/27 13:39:32;;;;;;;12.27;3.20;;;35.10;34.00;;;;;;4850430;29;91014;-86
2023/05/27 13:41:58;;;;;;;8.45;3.15;;;35.20;34.60;;;;;;4851365;29;91238;-86
2023/05/27 13:44:24;;;;;;;10.18;3.80;;;34.90;33.30;;;;;;4850328;29;87739;-85
2023/05/27 13:46:50;;;;;;;8.57;3.70;;;34.90;33.60;;;;;;4851939;28;89917;-86
2023/05/27 13:49:16;;;;;;;8.60;2.72;;;35.10;34.20;;;;;;4852572;29;92171;-87
2023/05/27 13:51:45;;;;;;;6.63;2.65;;;35.50;34.50;;;;;;4858213;28;90895;-87
2023/05/27 13:54:11;;;;;;;11.00;3.28;;;35.70;34.00;;;;;;4857540;28;87688;-84
2023/05/27 13:56:37;;;;;;;10.73;3.30;;;35.70;33.60;;;;;;4865370;28;90181;-83
2023/05/27 13:59:03;;;;;;;8.68;3.15;;;35.60;32.80;;;;;;4848226;29;91382;-83
2023/05/27 14:01:29;;;;;;;11.23;3.03;;;35.50;33.20;;;;;;4851936;29;91957;-86
2023/05/27 14:03:55;;;;;;;9.27;3.13;;;35.60;32.50;;;;;;4849881;29;88813;-77
2023/05/27 14:06:21;;;;;;;8.90;3.13;;;35.80;33.30;;;;;;4850755;29;87235;-78
2023/05/27 14:08:46;;;;;;;11.35;3.53;;;35.70;33.00;;;;;;4852924;29;89095;-78
2023/05/27 14:11:12;;;;;;;10.35;3.17;;;35.70;33.20;;;;;;4851443;28;88576;-78
2023/05/27 14:13:38;;;;;;;7.10;2.58;;;36.00;32.60;;;;;;4851532;28;88152;-77
2023/05/27 14:16:04;;;;;;;10.93;3.20;;;35.80;32.60;;;;;;4850883;28;87497;-76
2023/05/27 14:18:30;;;;;;;7.85;3.30;;;36.10;33.70;;;;;;4863237;28;90068;-75
2023/05/27 14:20:56;;;;;;;12.20;3.17;;;36.30;32.70;;;;;;4872047;28;91214;-75
2023/05/27 14:23:21;;;;;;;9.70;3.22;;;36.40;32.20;;;;;;4849351;29;87322;-81
2023/05/27 14:25:47;;;;;;;6.65;2.72;;;36.30;32.10;;;;;;4849208;29;89031;-81
2023/05/27 14:28:14;;;;;;;7.82;2.72;;;36.30;32.50;;;;;;4849307;29;92587;-82
2023/05/27 14:30:39;;;;;;;8.93;2.50;;;36.50;32.40;;;;;;4848351;29;90615;-81